CheckWX is a tool to help pilots better visualize weather data.  It is not intended as a substitute for an official pre-flight weather briefing.

02:38:58 UTC

CYZP TAF
Sandspit Airport
Sandspit, Canada
TAF CYZP 230038Z 2301/2313 25010KT P6SM SCT040 TEMPO 2301/2304 P6SM -SHRA BKN040 BECMG 2305/2307 20010G20KT FM230700 20010G20KT P6SM SCT015 OVC040 TEMPO 2307/2313 5SM -SHRA BR BKN015 RMK FCST BASED ON AUTO OBS. NXT FCST BY 230700Z

Apr-23@
01:00 UTC

Apr-23 @ 01:00 UTC

Apr-23@
05:00 UTC

Apr-23 @ 05:00 UTC

TAF CYZP 230038Z 2301/2313 25010KT P6SM SCT040
Wind
  • 250° at 10 KTS
Cloud Levels
  • Scattered at 4,000' AGL

Apr-23@
01:00 UTC

Apr-23 @ 01:00 UTC

Apr-23@
04:00 UTC

Apr-23 @ 04:00 UTC

TEMPO 2301/2304 P6SM -SHRA BKN040

Temporary

Temporary Changes expected for less than half the time period

Conditions
Light Rain
Cloud Levels
  • Broken at 4,000' AGL

Apr-23@
05:00 UTC

Apr-23 @ 05:00 UTC

Apr-23@
07:00 UTC

Apr-23 @ 07:00 UTC

BECMG 2305/2307 20010G20KT

Becoming

Becoming Conditions expected by Tue, Apr 23, 2019 @ 07:00 UTC

Wind
  • 200° at 10 KTS
  • {Gusting to 20 KTS
Cloud Levels
  • Scattered at 4,000' AGL

Apr-23@
07:00 UTC

Apr-23 @ 07:00 UTC

Apr-23@
13:00 UTC

Apr-23 @ 13:00 UTC

TEMPO 2307/2313 5SM -SHRA BR BKN015 RMK FCST BASED ON AUTO OBS. NXT FCST BY 230700Z

Temporary

Temporary Changes expected for less than half the time period

Conditions
Light Rain, Mist
Cloud Levels
  • Broken at 1,500' AGL

Apr-23@
07:00 UTC

Apr-23 @ 07:00 UTC

Apr-23@
13:00 UTC

Apr-23 @ 13:00 UTC

FM230700 20010G20KT P6SM SCT015 OVC040

From

From Standard forecast or significant change

Wind
  • 200° at 10 KTS
  • {Gusting to 20 KTS
Cloud Levels
  • Scattered at 1,500' AGL
  • Overcast at 4,000' AGL